Time;durP1;ratioP1;P1;durP2;ratioP2;P2;SDS_P1;SDS_P2;PMS_P1;PMS_P2;Temp;Humidity;BMP_temperature;BMP_pressure;BME280_temperature;BME280_humidity;BME280_pressure;Samples;Min_cycle;Max_cycle;Signal;HPM_P1;HPM_P2
2021/04/16 00:02:09;;;;;;;4.90;2.40;;;;;;;;;;5033289;28;20033;-53
2021/04/16 00:04:44;;;;;;;5.80;2.83;;;;;;;;;;5016276;28;20103;-56
2021/04/16 00:07:30;;;;;;;7.13;2.80;;;;;;;;;;5032892;28;20398;-57
2021/04/16 00:10:17;;;;;;;;;;;;;;;;;;;;;
2021/04/16 00:12:48;;;;;;;3.77;1.87;;;;;;;;;;5032852;28;20493;-54
2021/04/16 00:15:19;;;;;;;2.60;2.07;;;;;;;;;;5035534;28;20481;-56
2021/04/16 00:17:49;;;;;;;4.57;2.63;;;;;;;;;;5035512;28;20041;-56
2021/04/16 00:20:28;;;;;;;7.93;2.93;;;;;;;;;;5036573;28;20043;-54
2021/04/16 00:22:59;;;;;;;4.40;2.67;;;;;;;;;;5037270;28;20022;-56
2021/04/16 00:25:26;;;;;;;3.53;2.47;;;;;;;;;;5036440;28;20370;-56
2021/04/16 00:27:58;;;;;;;6.23;2.73;;;;;;;;;;5037139;28;20041;-56
2021/04/16 00:30:48;;;;;;;5.17;2.93;;;;;;;;;;5036676;28;20084;-53
2021/04/16 00:33:16;;;;;;;3.30;2.60;;;;;;;;;;5019493;28;20129;-53
2021/04/16 00:35:45;;;;;;;4.00;2.83;;;;;;;;;;5036679;28;20032;-55
2021/04/16 00:38:18;;;;;;;3.67;3.03;;;;;;;;;;5036081;28;20033;-54
2021/04/16 00:40:59;;;;;;;4.40;2.97;;;;;;;;;;5036966;28;20040;-54
2021/04/16 00:43:48;;;;;;;3.85;2.72;;;;;;;;;;5037151;28;20124;-55
2021/04/16 00:46:18;;;;;;;2.67;1.90;;;;;;;;;;5035252;28;20033;-56
2021/04/16 00:48:48;;;;;;;;;;;;;;;;;;5018037;28;20386;-53
2021/04/16 00:51:42;;;;;;;2.70;2.10;;;;;;;;;;5035077;28;20000;-55
2021/04/16 00:54:16;;;;;;;3.47;2.40;;;;;;;;;;5032076;28;20033;-56
2021/04/16 00:56:58;;;;;;;3.40;2.67;;;;;;;;;;5036439;28;20060;-54
2021/04/16 00:59:32;;;;;;;5.13;2.73;;;;;;;;;;5018873;28;20021;-56
2021/04/16 01:01:59;;;;;;;3.47;2.57;;;;;;;;;;5017953;28;20376;-55
2021/04/16 01:04:32;;;;;;;7.80;2.07;;;;;;;;;;5035477;28;20029;-56
2021/04/16 01:07:02;;;;;;;3.67;2.23;;;;;;;;;;5017822;28;20116;-55
2021/04/16 01:09:35;;;;;;;5.10;2.97;;;;;;;;;;5018837;28;20043;-52
2021/04/16 01:12:21;;;;;;;;;;;;;;;;;;;;;
2021/04/16 01:14:58;;;;;;;2.77;2.23;;;;;;;;;;5019922;28;20456;-56
2021/04/16 01:20:42;;;;;;;4.13;2.37;;;;;;;;;;5035478;28;20076;-54
2021/04/16 01:23:09;;;;;;;6.10;2.27;;;;;;;;;;5035544;28;20040;-56
2021/04/16 01:25:45;;;;;;;6.97;2.83;;;;;;;;;;5034976;28;20036;-55
2021/04/16 01:28:17;;;;;;;4.10;2.77;;;;;;;;;;5018101;28;20032;-55
2021/04/16 01:30:58;;;;;;;4.10;2.70;;;;;;;;;;5035583;28;20025;-54
2021/04/16 01:33:25;;;;;;;6.65;2.58;;;;;;;;;;5034491;28;20040;-55
2021/04/16 01:36:00;;;;;;;4.27;2.33;;;;;;;;;;5035294;28;20375;-56
2021/04/16 01:38:31;;;;;;;4.30;2.17;;;;;;;;;;5035581;28;20459;-56
2021/04/16 01:41:00;;;;;;;;;;;;;;;;;;5017745;28;20059;-56
2021/04/16 01:44:04;;;;;;;2.87;2.10;;;;;;;;;;5035248;28;19905;-56
2021/04/16 01:46:59;;;;;;;;;;;;;;;;;;;;;
2021/04/16 01:49:39;;;;;;;2.80;2.10;;;;;;;;;;5035468;28;20053;-55
2021/04/16 01:52:06;;;;;;;3.57;2.27;;;;;;;;;;5017295;28;20025;-53
2021/04/16 01:54:37;;;;;;;3.80;2.67;;;;;;;;;;5035821;28;20402;-54
2021/04/16 01:57:08;;;;;;;;;;;;;;;;;;5035950;28;20026;-55
2021/04/16 01:59:38;;;;;;;3.03;2.73;;;;;;;;;;5035507;28;19905;-56
2021/04/16 02:02:12;;;;;;;6.27;2.60;;;;;;;;;;5000343;28;20038;-55
2021/04/16 02:04:47;;;;;;;4.97;2.43;;;;;;;;;;5034867;28;20490;-56
2021/04/16 02:07:22;;;;;;;4.40;2.70;;;;;;;;;;5016587;28;20430;-54
2021/04/16 02:09:57;;;;;;;5.53;3.57;;;;;;;;;;5034528;28;20152;-56
2021/04/16 02:12:37;;;;;;;3.97;2.47;;;;;;;;;;5034974;28;20029;-55
2021/04/16 02:15:09;;;;;;;4.22;2.55;;;;;;;;;;5035075;28;20025;-54
2021/04/16 02:17:47;;;;;;;;;;;;;;;;;;;;;
2021/04/16 02:20:18;;;;;;;4.07;2.93;;;;;;;;;;5034530;28;20501;-52
2021/04/16 02:22:53;;;;;;;5.30;3.17;;;;;;;;;;5034068;28;20116;-56
2021/04/16 02:25:23;;;;;;;4.43;2.87;;;;;;;;;;5034819;28;20435;-56
2021/04/16 02:27:49;;;;;;;4.67;3.00;;;;;;;;;;5034747;28;20033;-55
2021/04/16 02:30:22;;;;;;;4.10;2.70;;;;;;;;;;5034911;28;20022;-56
2021/04/16 02:32:52;;;;;;;3.60;2.50;;;;;;;;;;5035022;28;20028;-53
2021/04/16 02:35:21;;;;;;;3.77;3.13;;;;;;;;;;5034491;28;20033;-55
2021/04/16 02:38:06;;;;;;;4.27;2.80;;;;;;;;;;5033727;28;20434;-56
2021/04/16 02:40:44;;;;;;;3.43;2.30;;;;;;;;;;5034926;28;20053;-54
2021/04/16 02:43:11;;;;;;;3.30;2.03;;;;;;;;;;5016700;28;20396;-56
2021/04/16 02:45:44;;;;;;;4.00;2.50;;;;;;;;;;5016539;28;20377;-55
2021/04/16 02:51:10;;;;;;;4.47;2.87;;;;;;;;;;5014341;28;20050;-56
2021/04/16 02:53:39;;;;;;;6.45;3.25;;;;;;;;;;5013912;28;20057;-56
2021/04/16 02:56:14;;;;;;;4.63;3.17;;;;;;;;;;4996399;28;20033;-56
2021/04/16 02:58:47;;;;;;;3.87;2.73;;;;;;;;;;5013826;28;20057;-55
2021/04/16 03:01:21;;;;;;;10.83;2.90;;;;;;;;;;5014489;28;20021;-56
2021/04/16 03:03:59;;;;;;;3.33;2.73;;;;;;;;;;5014297;28;20034;-53
2021/04/16 03:06:28;;;;;;;5.30;3.00;;;;;;;;;;5011668;28;20137;-56
2021/04/16 03:09:03;;;;;;;5.63;2.87;;;;;;;;;;4996782;28;20057;-55
2021/04/16 03:11:35;;;;;;;6.53;3.50;;;;;;;;;;5014613;28;20419;-55
2021/04/16 03:14:17;;;;;;;4.33;3.07;;;;;;;;;;5013836;28;20056;-56
2021/04/16 03:16:55;;;;;;;3.57;2.53;;;;;;;;;;5014572;28;20033;-54
2021/04/16 03:19:40;;;;;;;4.23;2.90;;;;;;;;;;5013844;28;20430;-55
2021/04/16 03:22:09;;;;;;;5.20;2.93;;;;;;;;;;5013649;28;20030;-53
2021/04/16 03:24:54;;;;;;;4.10;2.60;;;;;;;;;;4975334;28;20030;-53
2021/04/16 03:27:43;;;;;;;5.97;2.77;;;;;;;;;;4995752;28;20088;-56
2021/04/16 03:30:14;;;;;;;5.67;3.23;;;;;;;;;;5013457;28;20048;-56
2021/04/16 03:33:05;;;;;;;4.47;3.30;;;;;;;;;;5013973;28;20030;-51
2021/04/16 03:35:37;;;;;;;3.35;2.22;;;;;;;;;;5013394;28;20129;-56
2021/04/16 03:38:10;;;;;;;4.40;2.93;;;;;;;;;;5013185;28;20100;-54
2021/04/16 03:40:51;;;;;;;4.23;2.63;;;;;;;;;;4996325;28;20061;-57
2021/04/16 03:43:20;;;;;;;4.50;2.03;;;;;;;;;;5012940;28;20068;-56
2021/04/16 03:46:14;;;;;;;3.33;2.80;;;;;;;;;;5013746;28;20093;-55
2021/04/16 03:48:41;;;;;;;3.90;2.60;;;;;;;;;;5014902;28;20074;-55
2021/04/16 03:51:12;;;;;;;5.47;3.33;;;;;;;;;;5014359;28;20061;-56
2021/04/16 03:53:39;;;;;;;3.53;3.17;;;;;;;;;;5033026;28;20112;-56
2021/04/16 03:56:07;;;;;;;4.77;3.63;;;;;;;;;;5033906;28;20101;-54
2021/04/16 03:58:39;;;;;;;6.77;3.60;;;;;;;;;;5031761;28;20061;-54
2021/04/16 04:01:19;;;;;;;4.53;3.23;;;;;;;;;;5015200;28;20479;-55
2021/04/16 04:03:57;;;;;;;7.67;2.90;;;;;;;;;;5033176;28;20033;-55
2021/04/16 04:06:28;;;;;;;3.03;2.73;;;;;;;;;;5015205;28;20428;-53
2021/04/16 04:09:23;;;;;;;8.00;3.33;;;;;;;;;;5033102;28;20041;-55
2021/04/16 04:12:02;;;;;;;4.00;2.67;;;;;;;;;;5012536;28;20041;-54
2021/04/16 04:14:34;;;;;;;4.67;3.37;;;;;;;;;;5032988;28;20030;-56
2021/04/16 04:17:07;;;;;;;4.23;3.10;;;;;;;;;;5032628;28;20036;-52
2021/04/16 04:19:49;;;;;;;4.27;2.83;;;;;;;;;;5014690;28;20033;-53
2021/04/16 04:22:50;;;;;;;5.23;3.10;;;;;;;;;;5032627;28;20054;-55
2021/04/16 04:25:21;;;;;;;4.40;3.27;;;;;;;;;;5014632;28;20472;-55
2021/04/16 04:28:01;;;;;;;6.17;3.47;;;;;;;;;;5015553;28;20549;-54
2021/04/16 04:30:33;;;;;;;4.00;2.60;;;;;;;;;;5032647;28;20076;-52
2021/04/16 04:33:13;;;;;;;3.47;2.60;;;;;;;;;;5032841;28;20361;-56
2021/04/16 04:35:42;;;;;;;4.80;3.20;;;;;;;;;;5015507;28;20030;-56
2021/04/16 04:38:15;;;;;;;4.50;3.00;;;;;;;;;;5014667;28;20422;-55
2021/04/16 04:40:45;;;;;;;3.97;2.70;;;;;;;;;;5032163;28;20040;-56
2021/04/16 04:43:12;;;;;;;3.40;3.07;;;;;;;;;;5032859;28;20463;-55
2021/04/16 04:45:47;;;;;;;9.63;3.27;;;;;;;;;;5013781;28;20487;-54
2021/04/16 04:48:24;;;;;;;4.17;3.10;;;;;;;;;;5032380;28;20033;-55
2021/04/16 04:50:54;;;;;;;4.70;3.20;;;;;;;;;;5001127;28;20407;-54
2021/04/16 04:53:26;;;;;;;6.53;3.77;;;;;;;;;;5012870;28;20109;-52
2021/04/16 04:59:09;;;;;;;;;;;;;;;;;;;;;
2021/04/16 05:01:43;;;;;;;4.13;3.70;;;;;;;;;;5014067;28;20040;-54
2021/04/16 05:04:12;;;;;;;3.80;2.77;;;;;;;;;;4998402;28;20116;-55
2021/04/16 05:06:41;;;;;;;4.90;3.70;;;;;;;;;;5015789;28;20030;-54
2021/04/16 05:09:15;;;;;;;5.77;3.57;;;;;;;;;;4998651;28;20499;-52
2021/04/16 05:11:44;;;;;;;4.53;3.23;;;;;;;;;;4983354;28;20060;-54
2021/04/16 05:14:29;;;;;;;7.23;3.83;;;;;;;;;;5015805;28;20037;-52
2021/04/16 05:17:01;;;;;;;5.93;3.40;;;;;;;;;;4998215;28;20116;-51
2021/04/16 05:19:28;;;;;;;4.03;3.57;;;;;;;;;;5016621;28;20325;-52
2021/04/16 05:21:58;;;;;;;5.73;4.23;;;;;;;;;;5015931;28;20026;-56
2021/04/16 05:24:31;;;;;;;3.15;2.60;;;;;;;;;;4982293;28;20034;-53
2021/04/16 05:27:15;;;;;;;5.00;3.30;;;;;;;;;;4998294;28;20487;-52
2021/04/16 05:29:56;;;;;;;6.20;3.80;;;;;;;;;;5016137;28;20065;-54
2021/04/16 05:32:23;;;;;;;5.10;3.60;;;;;;;;;;5016455;28;20105;-53
2021/04/16 05:34:55;;;;;;;6.07;4.13;;;;;;;;;;5015473;28;20029;-55
2021/04/16 05:37:26;;;;;;;5.13;3.83;;;;;;;;;;4997914;28;20069;-55
2021/04/16 05:39:56;;;;;;;;;;;;;;;;;;5015613;28;20030;-52
2021/04/16 05:42:32;;;;;;;6.33;4.23;;;;;;;;;;4997928;28;20270;-55
2021/04/16 05:45:25;;;;;;;5.40;3.07;;;;;;;;;;5013868;28;20044;-51
2021/04/16 05:47:58;;;;;;;3.70;2.57;;;;;;;;;;5015419;28;20045;-51
2021/04/16 05:50:24;;;;;;;4.30;3.23;;;;;;;;;;4977983;28;20050;-55
2021/04/16 05:53:03;;;;;;;4.90;3.47;;;;;;;;;;5015162;28;20383;-52
2021/04/16 05:55:41;;;;;;;7.20;4.47;;;;;;;;;;4994320;28;20037;-53
2021/04/16 05:58:27;;;;;;;4.87;3.97;;;;;;;;;;5015326;28;20084;-53
2021/04/16 06:00:53;;;;;;;7.73;4.30;;;;;;;;;;5014043;28;20088;-55
2021/04/16 06:03:30;;;;;;;5.20;4.00;;;;;;;;;;4996871;28;20041;-55
2021/04/16 06:06:00;;;;;;;4.60;3.13;;;;;;;;;;5014979;28;20061;-54
2021/04/16 06:08:33;;;;;;;5.20;4.53;;;;;;;;;;5014920;28;20041;-54
2021/04/16 06:11:00;;;;;;;7.27;4.70;;;;;;;;;;4996341;28;20030;-50
2021/04/16 06:13:37;;;;;;;4.07;3.50;;;;;;;;;;5015111;28;20056;-54
2021/04/16 06:16:03;;;;;;;4.60;3.87;;;;;;;;;;4994459;28;20531;-52
2021/04/16 06:18:32;;;;;;;7.93;4.73;;;;;;;;;;4980669;28;20034;-54
2021/04/16 06:21:07;;;;;;;4.57;3.60;;;;;;;;;;5014869;28;20033;-54
2021/04/16 06:23:52;;;;;;;6.07;4.60;;;;;;;;;;5014158;28;20026;-55
2021/04/16 06:26:21;;;;;;;8.87;4.20;;;;;;;;;;4996617;28;20057;-53
2021/04/16 06:28:47;;;;;;;3.37;2.97;;;;;;;;;;4996428;28;20025;-56
2021/04/16 06:31:14;;;;;;;4.67;3.80;;;;;;;;;;4996146;28;20030;-54
2021/04/16 06:33:42;;;;;;;5.07;4.47;;;;;;;;;;4997205;28;20022;-56
2021/04/16 06:36:15;;;;;;;10.03;5.80;;;;;;;;;;4996754;28;20038;-54
2021/04/16 06:38:48;;;;;;;4.73;3.57;;;;;;;;;;5013984;28;20034;-54
2021/04/16 06:41:33;;;;;;;5.70;4.90;;;;;;;;;;4996666;28;20480;-54
2021/04/16 06:44:18;;;;;;;4.47;3.93;;;;;;;;;;4996341;28;20443;-54
2021/04/16 06:47:03;;;;;;;7.00;4.03;;;;;;;;;;5013800;28;20021;-54
2021/04/16 06:49:33;;;;;;;5.70;4.13;;;;;;;;;;4997833;28;20030;-55
2021/04/16 06:52:25;;;;;;;8.20;5.15;;;;;;;;;;5016837;28;20343;-56
2021/04/16 06:55:00;;;;;;;5.60;3.77;;;;;;;;;;5033142;28;20037;-56
2021/04/16 06:57:31;;;;;;;4.67;4.17;;;;;;;;;;5033633;28;20060;-57
2021/04/16 07:00:01;;;;;;;6.03;4.07;;;;;;;;;;5016494;28;20025;-57
2021/04/16 07:02:38;;;;;;;5.47;3.73;;;;;;;;;;5033610;28;20033;-56
2021/04/16 07:05:17;;;;;;;5.30;4.20;;;;;;;;;;5015600;28;20025;-51
2021/04/16 07:08:02;;;;;;;7.17;4.53;;;;;;;;;;5015102;28;20033;-57
2021/04/16 07:10:42;;;;;;;7.23;4.97;;;;;;;;;;5015242;28;20382;-54
2021/04/16 07:13:31;;;;;;;8.70;4.47;;;;;;;;;;5017586;28;20021;-57
2021/04/16 07:16:04;;;;;;;5.57;4.70;;;;;;;;;;5033059;28;20021;-57
2021/04/16 07:18:53;;;;;;;7.37;4.53;;;;;;;;;;5033108;28;20120;-55
2021/04/16 07:21:32;;;;;;;5.43;3.93;;;;;;;;;;5015116;28;20033;-56
2021/04/16 07:24:03;;;;;;;6.37;4.40;;;;;;;;;;5033767;28;20041;-57
2021/04/16 07:26:57;;;;;;;5.10;4.60;;;;;;;;;;5015634;28;20033;-56
2021/04/16 07:29:42;;;;;;;6.50;4.93;;;;;;;;;;5033205;28;20045;-57
2021/04/16 07:32:18;;;;;;;6.23;5.27;;;;;;;;;;5016752;28;20025;-57
2021/04/16 07:34:59;;;;;;;5.50;4.17;;;;;;;;;;5000274;28;20472;-56
2021/04/16 07:37:47;;;;;;;6.65;4.80;;;;;;;;;;5033510;28;20033;-56
2021/04/16 07:40:43;;;;;;;5.03;4.20;;;;;;;;;;5016101;28;20053;-54
2021/04/16 07:43:15;;;;;;;6.20;4.77;;;;;;;;;;5033302;28;20045;-56
2021/04/16 07:46:02;;;;;;;6.33;4.60;;;;;;;;;;4999960;28;20029;-57
2021/04/16 07:48:33;;;;;;;4.60;4.00;;;;;;;;;;5014970;28;20474;-56
2021/04/16 07:51:00;;;;;;;5.50;4.22;;;;;;;;;;5002528;28;20077;-56
2021/04/16 07:53:33;;;;;;;4.40;4.00;;;;;;;;;;4995584;28;20046;-57
2021/04/16 07:56:18;;;;;;;6.33;4.73;;;;;;;;;;4995688;28;20061;-55
2021/04/16 07:58:45;;;;;;;8.57;4.30;;;;;;;;;;4995202;28;20484;-57
2021/04/16 08:01:30;;;;;;;6.43;4.90;;;;;;;;;;4979456;28;20127;-56
2021/04/16 08:04:15;;;;;;;4.70;4.20;;;;;;;;;;5013330;28;20034;-56
2021/04/16 08:06:50;;;;;;;5.30;4.07;;;;;;;;;;5011613;28;20034;-56
2021/04/16 08:09:29;;;;;;;5.07;4.50;;;;;;;;;;4993773;28;20129;-56
2021/04/16 08:12:25;;;;;;;5.37;4.20;;;;;;;;;;5013148;28;20030;-57
2021/04/16 08:15:11;;;;;;;7.47;5.10;;;;;;;;;;5013667;28;20037;-57
2021/04/16 08:20:37;;;;;;;4.57;4.13;;;;;;;;;;5013783;28;20037;-56
2021/04/16 08:23:10;;;;;;;5.37;4.80;;;;;;;;;;4979088;28;20074;-56
2021/04/16 08:26:09;;;;;;;5.47;4.30;;;;;;;;;;5013210;28;20022;-57
2021/04/16 08:28:45;;;;;;;5.10;4.10;;;;;;;;;;4995320;28;20057;-57
2021/04/16 08:31:19;;;;;;;5.27;4.00;;;;;;;;;;4995092;28;20025;-54
2021/04/16 08:33:58;;;;;;;5.03;4.07;;;;;;;;;;5011347;28;20052;-57
2021/04/16 08:36:44;;;;;;;6.00;4.60;;;;;;;;;;4998359;28;20025;-56
2021/04/16 08:39:32;;;;;;;5.73;4.37;;;;;;;;;;5016561;28;20423;-57
2021/04/16 08:42:08;;;;;;;7.20;5.07;;;;;;;;;;5016587;28;20049;-56
2021/04/16 08:44:54;;;;;;;5.77;4.57;;;;;;;;;;4984693;28;20531;-57
2021/04/16 08:47:46;;;;;;;5.27;4.03;;;;;;;;;;4999041;28;20582;-57
2021/04/16 08:50:16;;;;;;;6.87;4.63;;;;;;;;;;4955198;28;20047;-54
2021/04/16 08:53:01;;;;;;;5.83;4.73;;;;;;;;;;5015703;28;20384;-56
2021/04/16 08:55:28;;;;;;;4.10;3.70;;;;;;;;;;5016858;28;20033;-55
2021/04/16 08:58:16;;;;;;;6.00;4.40;;;;;;;;;;5016176;28;20455;-56
2021/04/16 09:00:54;;;;;;;4.77;3.90;;;;;;;;;;5010223;28;20038;-57
2021/04/16 09:03:48;;;;;;;6.10;4.87;;;;;;;;;;4998734;28;20375;-53
2021/04/16 09:06:21;;;;;;;4.10;3.67;;;;;;;;;;4999159;28;20141;-55
2021/04/16 09:08:51;;;;;;;6.40;4.53;;;;;;;;;;5016191;28;20042;-55
2021/04/16 09:11:43;;;;;;;6.90;5.40;;;;;;;;;;4999628;28;20076;-57
2021/04/16 09:14:18;;;;;;;7.13;5.30;;;;;;;;;;4999367;28;20364;-57
2021/04/16 09:16:54;;;;;;;4.53;4.03;;;;;;;;;;5016348;28;20022;-57
2021/04/16 09:19:26;;;;;;;6.47;4.53;;;;;;;;;;5015600;28;20064;-55
2021/04/16 09:22:05;;;;;;;6.10;5.13;;;;;;;;;;4997753;28;20121;-57
2021/04/16 09:24:56;;;;;;;4.07;3.17;;;;;;;;;;5015890;28;20109;-57
2021/04/16 09:27:35;;;;;;;8.30;5.40;;;;;;;;;;5014086;28;20069;-54
2021/04/16 09:30:05;;;;;;;5.53;4.63;;;;;;;;;;5016256;28;20032;-55
2021/04/16 09:32:45;;;;;;;6.45;5.18;;;;;;;;;;4997778;28;20040;-57
2021/04/16 09:35:31;;;;;;;5.10;4.60;;;;;;;;;;5015534;28;20428;-56
2021/04/16 09:38:17;;;;;;;5.33;4.23;;;;;;;;;;5014180;28;20034;-58
2021/04/16 09:41:03;;;;;;;7.37;4.13;;;;;;;;;;5015953;28;20108;-57
2021/04/16 09:43:32;;;;;;;5.73;4.33;;;;;;;;;;5014671;28;20468;-57
2021/04/16 09:45:59;;;;;;;6.60;4.70;;;;;;;;;;4986971;28;20498;-58
2021/04/16 09:48:45;;;;;;;6.00;5.40;;;;;;;;;;4997009;28;20042;-56
2021/04/16 09:51:30;;;;;;;5.10;4.50;;;;;;;;;;5028288;28;20088;-56
2021/04/16 09:54:11;;;;;;;4.90;4.33;;;;;;;;;;5035476;28;20112;-58
2021/04/16 09:57:08;;;;;;;8.23;4.70;;;;;;;;;;5035172;28;20025;-57
2021/04/16 09:59:34;;;;;;;6.27;4.83;;;;;;;;;;5034658;28;20070;-58
2021/04/16 10:02:18;;;;;;;4.23;3.47;;;;;;;;;;5035716;28;20045;-56
2021/04/16 10:04:59;;;;;;;3.90;3.50;;;;;;;;;;5017081;28;20483;-57
2021/04/16 10:07:45;;;;;;;5.72;4.43;;;;;;;;;;5000804;28;20056;-57
2021/04/16 10:10:22;;;;;;;5.90;4.10;;;;;;;;;;5035377;28;20075;-56
2021/04/16 10:13:19;;;;;;;5.35;3.53;;;;;;;;;;5035371;28;20021;-56
2021/04/16 10:16:11;;;;;;;4.70;3.88;;;;;;;;;;5034171;28;20475;-58
2021/04/16 10:18:58;;;;;;;4.63;4.10;;;;;;;;;;5028409;28;20472;-58
2021/04/16 10:21:33;;;;;;;3.85;3.40;;;;;;;;;;5035372;28;20037;-58
2021/04/16 10:56:58;;;;;;;6.28;3.97;;;;;;;;;;5034117;28;20511;-58
2021/04/16 11:06:01;;;;;;;4.00;3.00;;;;;;;;;;5018921;28;20493;-54
2021/04/16 12:39:36;;;;;;;11.60;4.27;;;;;;;;;;5036755;28;20064;-58
2021/04/16 12:42:11;;;;;;;6.10;4.07;;;;;;;;;;5018616;28;20025;-58
2021/04/16 12:44:37;;;;;;;5.80;5.30;;;;;;;;;;5036383;28;20417;-57
2021/04/16 12:47:17;;;;;;;5.70;4.95;;;;;;;;;;5036103;28;20388;-58
2021/04/16 12:49:47;;;;;;;5.25;4.20;;;;;;;;;;5036252;28;20033;-58
2021/04/16 12:52:19;;;;;;;5.23;4.40;;;;;;;;;;5017622;28;20396;-56
2021/04/16 12:57:39;;;;;;;5.33;3.90;;;;;;;;;;4989759;28;20567;-55
2021/04/16 13:00:24;;;;;;;5.63;4.10;;;;;;;;;;5035461;28;20021;-56
2021/04/16 13:03:02;;;;;;;6.47;4.97;;;;;;;;;;5018725;28;20032;-56
2021/04/16 13:05:37;;;;;;;5.57;4.22;;;;;;;;;;5035998;28;20029;-57
2021/04/16 13:08:04;;;;;;;6.32;4.25;;;;;;;;;;5035724;28;20129;-55
2021/04/16 13:10:31;;;;;;;6.68;4.15;;;;;;;;;;5001840;28;20037;-57
2021/04/16 13:12:59;;;;;;;4.25;3.33;;;;;;;;;;5018794;28;20477;-56
2021/04/16 13:15:29;;;;;;;12.20;4.72;;;;;;;;;;5036621;28;20041;-57
2021/04/16 13:17:59;;;;;;;5.85;4.00;;;;;;;;;;5035818;28;20030;-56
2021/04/16 13:20:26;;;;;;;5.88;4.38;;;;;;;;;;5035843;28;20113;-55
2021/04/16 13:22:53;;;;;;;7.47;4.30;;;;;;;;;;5034898;28;20029;-56
2021/04/16 13:25:26;;;;;;;5.27;4.23;;;;;;;;;;5035757;28;20017;-57
2021/04/16 13:27:53;;;;;;;5.40;3.80;;;;;;;;;;5035324;28;20030;-57
2021/04/16 13:30:24;;;;;;;3.97;3.38;;;;;;;;;;5017939;28;20034;-58
2021/04/16 13:32:54;;;;;;;5.57;3.38;;;;;;;;;;5035170;28;20032;-57
2021/04/16 13:35:36;;;;;;;6.30;4.03;;;;;;;;;;5035126;28;20029;-57
2021/04/16 13:38:10;;;;;;;4.20;3.45;;;;;;;;;;5017995;28;20446;-57
2021/04/16 13:40:48;;;;;;;3.65;3.20;;;;;;;;;;5035429;28;20355;-57
2021/04/16 13:43:15;;;;;;;4.63;3.75;;;;;;;;;;5017318;28;20108;-58
2021/04/16 13:45:51;;;;;;;4.53;3.15;;;;;;;;;;5018091;28;20037;-58
2021/04/16 13:48:18;;;;;;;3.22;2.90;;;;;;;;;;5017567;28;20034;-58
2021/04/16 13:50:47;;;;;;;3.90;3.10;;;;;;;;;;5035148;28;20053;-57
2021/04/16 13:53:17;;;;;;;4.57;3.40;;;;;;;;;;5034312;28;20497;-58
2021/04/16 13:55:49;;;;;;;4.45;3.67;;;;;;;;;;5035794;28;20070;-57
2021/04/16 13:58:33;;;;;;;5.28;3.60;;;;;;;;;;5035144;28;20056;-57
2021/04/16 14:01:08;;;;;;;3.80;2.35;;;;;;;;;;5035049;28;20049;-58
2021/04/16 14:03:37;;;;;;;3.65;3.05;;;;;;;;;;5034058;28;20059;-57
2021/04/16 14:06:11;;;;;;;4.80;3.28;;;;;;;;;;5017590;28;20053;-57
2021/04/16 14:08:47;;;;;;;3.85;2.70;;;;;;;;;;5034490;28;20120;-58
2021/04/16 14:11:16;;;;;;;4.18;2.78;;;;;;;;;;5035607;28;20030;-58
2021/04/16 14:13:47;;;;;;;9.10;3.15;;;;;;;;;;5035287;28;20033;-58
2021/04/16 14:16:27;;;;;;;5.78;3.33;;;;;;;;;;5034733;28;20033;-59
2021/04/16 14:19:04;;;;;;;4.87;3.23;;;;;;;;;;5018372;28;20025;-58
2021/04/16 14:21:34;;;;;;;3.70;2.88;;;;;;;;;;5017873;28;20284;-56
2021/04/16 14:24:11;;;;;;;3.42;2.55;;;;;;;;;;5000540;28;20124;-58
2021/04/16 14:26:42;;;;;;;3.42;2.40;;;;;;;;;;5016918;28;20120;-58
2021/04/16 14:29:08;;;;;;;2.95;2.08;;;;;;;;;;5034337;28;20029;-56
2021/04/16 14:31:46;;;;;;;5.07;2.67;;;;;;;;;;5034507;28;20032;-58
2021/04/16 14:34:20;;;;;;;3.42;2.30;;;;;;;;;;5035398;28;20524;-58
2021/04/16 14:36:46;;;;;;;4.82;2.50;;;;;;;;;;5034836;28;20117;-58
2021/04/16 14:39:27;;;;;;;3.97;2.30;;;;;;;;;;5016504;28;20109;-56
2021/04/16 14:41:53;;;;;;;;;;;;;;;;;;5034444;28;20418;-55
2021/04/16 14:44:22;;;;;;;3.00;1.65;;;;;;;;;;5016939;28;20516;-57
2021/04/16 14:46:49;;;;;;;2.90;1.90;;;;;;;;;;5034409;28;20163;-57
2021/04/16 14:49:27;;;;;;;;;;;;;;;;;;;;;
2021/04/16 14:51:56;;;;;;;4.93;2.55;;;;;;;;;;5023020;28;20037;-57
2021/04/16 14:54:36;;;;;;;3.38;2.30;;;;;;;;;;5015999;28;20029;-55
2021/04/16 14:57:07;;;;;;;3.20;2.20;;;;;;;;;;5034077;28;20029;-58
2021/04/16 14:59:39;;;;;;;3.72;2.25;;;;;;;;;;5017151;28;20355;-56
2021/04/16 15:02:08;;;;;;;3.08;1.85;;;;;;;;;;5016002;28;20029;-57
2021/04/16 15:04:39;;;;;;;4.78;2.60;;;;;;;;;;5015941;28;20026;-57
2021/04/16 15:07:08;;;;;;;3.42;2.42;;;;;;;;;;5013718;28;20044;-58
2021/04/16 15:09:45;;;;;;;5.47;2.72;;;;;;;;;;5034169;28;20087;-57
2021/04/16 15:12:20;;;;;;;3.25;2.13;;;;;;;;;;5015392;28;20033;-56
2021/04/16 15:14:46;;;;;;;4.55;2.42;;;;;;;;;;5015607;28;20079;-57
2021/04/16 15:17:13;;;;;;;4.47;2.17;;;;;;;;;;5033875;28;20533;-57
2021/04/16 15:19:50;;;;;;;2.92;2.20;;;;;;;;;;5016745;28;20052;-58
2021/04/16 15:22:23;;;;;;;4.68;2.45;;;;;;;;;;5033747;28;20022;-57
2021/04/16 15:24:57;;;;;;;3.85;2.90;;;;;;;;;;5015551;28;20036;-57
2021/04/16 15:27:35;;;;;;;4.40;2.55;;;;;;;;;;4999242;28;20025;-57
2021/04/16 15:30:03;;;;;;;3.25;2.35;;;;;;;;;;5033600;28;20033;-58
2021/04/16 15:32:36;;;;;;;3.22;2.13;;;;;;;;;;5033205;28;20026;-58
2021/04/16 15:46:23;;;;;;;4.13;2.08;;;;;;;;;;5032945;28;20036;-57
2021/04/16 15:48:49;;;;;;;3.00;2.30;;;;;;;;;;5017781;28;20103;-56
2021/04/16 15:51:25;;;;;;;3.83;2.60;;;;;;;;;;5014325;28;20470;-57
2021/04/16 15:53:54;;;;;;;7.70;2.25;;;;;;;;;;5015500;28;20049;-57
2021/04/16 15:56:24;;;;;;;3.03;2.28;;;;;;;;;;5015385;28;20387;-54
2021/04/16 15:58:54;;;;;;;3.33;2.70;;;;;;;;;;5015454;28;20076;-57
2021/04/16 16:01:24;;;;;;;5.65;3.30;;;;;;;;;;5033158;28;20398;-57
2021/04/16 16:03:50;;;;;;;3.30;2.42;;;;;;;;;;5015216;28;20063;-57
2021/04/16 16:06:18;;;;;;;4.35;2.28;;;;;;;;;;5033160;28;20022;-56
2021/04/16 16:08:46;;;;;;;5.20;2.10;;;;;;;;;;5032913;28;20060;-57
2021/04/16 16:11:37;;;;;;;4.50;2.65;;;;;;;;;;5033026;28;20459;-54
2021/04/16 16:14:10;;;;;;;5.57;3.17;;;;;;;;;;5014802;28;20032;-56
2021/04/16 16:16:41;;;;;;;3.03;1.92;;;;;;;;;;5031903;28;20087;-55
2021/04/16 16:19:09;;;;;;;;;;;;;;;;;;5033386;28;20040;-57
2021/04/16 16:21:41;;;;;;;3.00;2.10;;;;;;;;;;5032910;28;19905;-53
2021/04/16 16:24:07;;;;;;;3.63;2.17;;;;;;;;;;5015619;28;20475;-54
2021/04/16 16:26:42;;;;;;;4.25;2.63;;;;;;;;;;5033637;28;20367;-57
2021/04/16 16:29:12;;;;;;;3.28;2.20;;;;;;;;;;5033008;28;20113;-57
2021/04/16 16:31:46;;;;;;;;;;;;;;;;;;5015870;28;20082;-57
2021/04/16 16:34:18;;;;;;;3.50;2.50;;;;;;;;;;5032828;28;20338;-57
2021/04/16 16:36:57;;;;;;;3.72;3.33;;;;;;;;;;5015100;28;20108;-55
2021/04/16 16:39:41;;;;;;;4.00;2.97;;;;;;;;;;5014963;28;20099;-55
2021/04/16 16:42:07;;;;;;;7.53;3.30;;;;;;;;;;5014863;28;20025;-57
2021/04/16 16:44:40;;;;;;;7.25;3.42;;;;;;;;;;5033030;28;20048;-58
2021/04/16 16:47:12;;;;;;;5.07;3.55;;;;;;;;;;5032893;28;20030;-56
2021/04/16 16:49:39;;;;;;;5.60;2.73;;;;;;;;;;5015181;28;20039;-57
2021/04/16 16:52:08;;;;;;;3.55;3.00;;;;;;;;;;5032593;28;20053;-58
2021/04/16 16:54:37;;;;;;;5.03;3.50;;;;;;;;;;5033411;28;20455;-58
2021/04/16 16:57:04;;;;;;;4.17;3.50;;;;;;;;;;5033712;28;20037;-57
2021/04/16 16:59:50;;;;;;;4.57;2.77;;;;;;;;;;5018569;28;20535;-59
2021/04/16 17:02:17;;;;;;;3.67;2.70;;;;;;;;;;5036497;28;20029;-56
2021/04/16 17:04:55;;;;;;;4.30;2.43;;;;;;;;;;5035718;28;20029;-58
2021/04/16 17:07:28;;;;;;;3.60;2.75;;;;;;;;;;5017989;28;20160;-57
2021/04/16 17:09:54;;;;;;;2.83;2.33;;;;;;;;;;5036101;28;20033;-56
2021/04/16 17:12:22;;;;;;;5.00;3.50;;;;;;;;;;5036212;28;20096;-54
2021/04/16 17:14:51;;;;;;;5.30;3.40;;;;;;;;;;5036175;28;20036;-55
2021/04/16 17:17:21;;;;;;;4.10;2.60;;;;;;;;;;4985328;28;20049;-55
2021/04/16 17:19:50;;;;;;;4.03;3.00;;;;;;;;;;5018320;28;20606;-54
2021/04/16 17:22:19;;;;;;;4.20;3.00;;;;;;;;;;5036461;28;20029;-55
2021/04/16 17:25:04;;;;;;;4.23;3.23;;;;;;;;;;5035933;28;20029;-55
2021/04/16 17:27:38;;;;;;;6.93;3.07;;;;;;;;;;5036244;28;20057;-56
2021/04/16 17:30:12;;;;;;;5.30;3.50;;;;;;;;;;5018013;28;20037;-57
2021/04/16 17:32:47;;;;;;;4.93;3.55;;;;;;;;;;5035865;28;20030;-57
2021/04/16 17:35:21;;;;;;;3.70;2.67;;;;;;;;;;5036194;28;20037;-55
2021/04/16 17:37:53;;;;;;;3.50;2.67;;;;;;;;;;5016701;28;20042;-56
2021/04/16 17:40:20;;;;;;;3.77;2.77;;;;;;;;;;5018205;28;20033;-57
2021/04/16 17:42:51;;;;;;;4.83;3.60;;;;;;;;;;5036233;28;20099;-57
2021/04/16 17:45:20;;;;;;;;;;;;;;;;;;5036573;28;20053;-58
2021/04/16 17:47:50;;;;;;;3.37;3.03;;;;;;;;;;5035179;28;19905;-56
2021/04/16 17:50:25;;;;;;;4.00;3.23;;;;;;;;;;5035431;28;20029;-57
2021/04/16 17:53:07;;;;;;;5.47;3.70;;;;;;;;;;5017574;28;20383;-56
2021/04/16 17:55:39;;;;;;;4.87;3.27;;;;;;;;;;5001258;28;20471;-55
2021/04/16 17:58:11;;;;;;;3.63;2.77;;;;;;;;;;5017887;28;20033;-57
2021/04/16 18:00:44;;;;;;;4.47;3.60;;;;;;;;;;5035299;28;20049;-57
2021/04/16 18:03:13;;;;;;;4.17;3.13;;;;;;;;;;5034968;28;20057;-55
2021/04/16 18:05:40;;;;;;;4.17;3.30;;;;;;;;;;5034664;28;20033;-58
2021/04/16 18:08:32;;;;;;;3.43;2.77;;;;;;;;;;5017064;28;20360;-58
2021/04/16 18:11:03;;;;;;;4.17;2.83;;;;;;;;;;5002851;28;20036;-55
2021/04/16 18:13:29;;;;;;;;;;;;;;;;;;5035264;28;20482;-55
2021/04/16 18:16:01;;;;;;;4.73;3.37;;;;;;;;;;5035841;28;19905;-58